Ashland, NJ

8:39 PM EDT on October 24, 2014 (GMT -0400)
Franklin Square | Change Station
CLOSE
Current Station
Personal Weather Station
Location: Voorhees, NJ
Elevation: 109 ft
Nearby Weather Stations

Elev 109 ft 39.85 °N, 74.99 °W | Updated 8 seconds ago

Partly Cloudy
Partly Cloudy
58.1 °F
Feels Like 58.1 °F
N
1.2
Wind Variable Wind from West
Gusts 1.2 mph

Today
High -- | Low -- °F
--% Chance of Precip.
Yesterday
High -- | Low -- °F
Precip. -- in
7:19 AM 6:07 PM
New Moon, 1% visible
Pressure 29.84 in
Visibility 10.0 miles
Clouds Clear
Dew Point 47 °F
Humidity 66%
Rainfall 0.00 in
Snow Depth Not available.
UV 0 out of 12
Pollen .30 out of 12
Ozone Good
PM2.5 Good
Flu Activity Sporadic
METAR KVAY 242354Z AUTO 29004KT 10SM CLR 15/08 A2984 RMK AO2 SLP103 T01500078 10206 20133 51018

More Conditions Fewer Conditions

Pressure 29.84 in
Visibility 10.0 miles
Clouds Clear
Dew Point 47 °F
Humidity 66%
Rainfall 0.00 in
Snow Depth Not available.
UV 0 out of 12
Pollen .30 out of 12
Ozone Good
PM2.5 Good
Flu Activity Sporadic
METAR KVAY 242354Z AUTO 29004KT 10SM CLR 15/08 A2984 RMK AO2 SLP103 T01500078 10206 20133 51018

More Conditions Fewer Conditions

10-Day Weather Forecast

Almanac

Astronomy

Oct. 24, 2014 Rise Set
Actual Time 7:19 AM EDT 6:07 PM EDT
Civil Twilight 6:52 AM EDT 6:35 PM EDT
Nautical Twilight 6:20 AM EDT 7:06 PM EDT
Astronomical Twilight 5:49 AM EDT 7:38 PM EDT
Moon 7:56 AM EDT (10/24) 6:46 PM EDT (10/24)
Length of Visible Light 11h 43m
Length of Day
10h 48m
Tomorrow will be 2m 25s shorter.
New Moon, 1% of the Moon is Illuminated
Today
New Moon
Oct 30
First Quarter
Nov 6
Full
Nov 14
Last Quarter
Nov 22
New

Today's Extremes

State Highs State Lows

Community

WunderPhotos

Upload Photos

1,764,727 photos uploaded!

WunderBlogs® & News

Nearby

Air Quality

  Air Quality AQ Index Pollutant
Yesterday Good
PM2.5
Yesterday Good
OZONE
Current Good
PM2.5
Current Good
OZONE
Friday Good
PM2.5
Friday Good
OZONE
Saturday Good
PM2.5
Saturday Good
OZONE
Sunday Good
PM2.5
Sunday Good
OZONE
Monday Good
PM2.5
Monday Good
OZONE

Snow Depth

Station Depth Elevation
No new snow has been reported.

Earthquake Activity

City Distance Mag. Time & Date
No recent earthquake activity has been reported nearby.
Minimum magnitude displayed is 2.5.

Coastal Water Temperatures

Place Temperature
Cape May, NJ 64.0 °F
Reedy Point, DE 62.1 °F
Delaware City, DE 61.0 °F
Marcus Hook, PA 63.0 °F

Nearby Weather Stations